Time;durP1;ratioP1;P1;durP2;ratioP2;P2;SDS_P1;SDS_P2;PMS_P1;PMS_P2;Temp;Humidity;BMP_temperature;BMP_pressure;BME280_temperature;BME280_humidity;BME280_pressure;Samples;Min_cycle;Max_cycle;Signal;HPM_P1;HPM_P2
2021/05/07 00:02:23;;;;;;;9.63;9.13;;;8.80;99.90;;;;;;5084257;28;20189;-77
2021/05/07 00:04:49;;;;;;;9.80;9.30;;;8.80;99.90;;;;;;5073398;28;20237;-77
2021/05/07 00:07:16;;;;;;;9.67;9.17;;;8.80;99.90;;;;;;5083110;28;20209;-77
2021/05/07 00:09:42;;;;;;;9.90;9.40;;;8.80;99.90;;;;;;5082436;28;20217;-77
2021/05/07 00:12:09;;;;;;;9.70;9.10;;;8.70;99.90;;;;;;5076335;28;20204;-77
2021/05/07 00:14:35;;;;;;;9.77;9.27;;;8.70;99.90;;;;;;5084119;28;20251;-78
2021/05/07 00:17:02;;;;;;;9.23;8.73;;;8.70;99.90;;;;;;5077882;28;20205;-78
2021/05/07 00:19:28;;;;;;;9.30;8.80;;;8.70;99.90;;;;;;5079156;28;20241;-77
2021/05/07 00:21:55;;;;;;;9.57;9.07;;;8.70;99.90;;;;;;5082256;28;20220;-77
2021/05/07 00:24:22;;;;;;;9.10;8.57;;;8.70;99.90;;;;;;5082231;28;20233;-77
2021/05/07 00:26:48;;;;;;;9.57;9.07;;;8.60;99.90;;;;;;5082915;28;20197;-77
2021/05/07 00:29:14;;;;;;;9.40;8.80;;;8.60;99.90;;;;;;5084936;28;20212;-77
2021/05/07 00:31:41;;;;;;;9.50;9.00;;;8.60;99.90;;;;;;5082923;28;20253;-77
2021/05/07 00:34:07;;;;;;;9.63;9.13;;;8.60;99.90;;;;;;5078182;28;20264;-78
2021/05/07 00:36:33;;;;;;;9.60;9.00;;;8.60;99.90;;;;;;5078589;28;20195;-77
2021/05/07 00:38:59;;;;;;;9.73;9.23;;;8.60;99.90;;;;;;5080719;28;20221;-77
2021/05/07 00:41:27;;;;;;;9.70;9.20;;;8.60;99.90;;;;;;5080282;28;20223;-77
2021/05/07 00:43:53;;;;;;;10.10;9.40;;;8.60;99.90;;;;;;5082125;28;20193;-77
2021/05/07 00:46:20;;;;;;;10.07;9.47;;;8.60;99.90;;;;;;5074246;28;20202;-78
2021/05/07 00:48:46;;;;;;;10.10;9.50;;;8.60;99.90;;;;;;5075831;28;20336;-77
2021/05/07 00:51:13;;;;;;;10.23;9.63;;;8.70;99.90;;;;;;5079485;28;20277;-77
2021/05/07 00:53:40;;;;;;;9.90;9.30;;;8.70;99.90;;;;;;5071821;28;20225;-78
2021/05/07 00:56:07;;;;;;;10.10;9.50;;;8.70;99.90;;;;;;5072012;28;20208;-77
2021/05/07 00:58:35;;;;;;;10.30;9.70;;;8.70;99.90;;;;;;5081314;28;20682;-78
2021/05/07 01:01:01;;;;;;;10.00;9.40;;;8.70;99.90;;;;;;5076071;28;20214;-77
2021/05/07 01:03:29;;;;;;;9.90;9.40;;;8.80;99.90;;;;;;5080720;28;20261;-78
2021/05/07 01:05:59;;;;;;;10.10;9.40;;;8.80;99.90;;;;;;5083025;28;20194;-77
2021/05/07 01:08:26;;;;;;;9.83;9.33;;;8.80;99.90;;;;;;5080601;28;20202;-77
2021/05/07 01:10:56;;;;;;;10.03;9.43;;;8.80;99.90;;;;;;5073181;28;20666;-77
2021/05/07 01:13:22;;;;;;;10.20;9.60;;;8.80;99.90;;;;;;5082062;28;20744;-77
2021/05/07 01:15:55;;;;;;;10.30;9.70;;;8.80;99.90;;;;;;5092225;28;20194;-77
2021/05/07 01:18:26;;;;;;;10.10;9.50;;;8.80;99.90;;;;;;5095625;28;20205;-77
2021/05/07 01:20:54;;;;;;;10.40;9.80;;;8.80;99.90;;;;;;5086497;28;20318;-78
2021/05/07 01:23:21;;;;;;;10.20;9.60;;;8.80;99.90;;;;;;5088937;28;20203;-77
2021/05/07 01:25:49;;;;;;;10.03;9.33;;;8.80;99.90;;;;;;5086932;28;20192;-77
2021/05/07 01:28:16;;;;;;;10.20;9.60;;;8.80;99.90;;;;;;5085746;28;20196;-77
2021/05/07 01:30:44;;;;;;;9.67;9.17;;;8.80;99.90;;;;;;5087962;28;20201;-77
2021/05/07 01:33:13;;;;;;;9.70;9.10;;;8.80;99.90;;;;;;5085099;28;20201;-77
2021/05/07 01:35:43;;;;;;;9.70;9.20;;;8.70;99.90;;;;;;5082093;28;20201;-77
2021/05/07 01:38:12;;;;;;;9.50;9.00;;;8.70;99.90;;;;;;5085461;28;20190;-77
2021/05/07 01:40:39;;;;;;;10.00;9.40;;;8.70;99.90;;;;;;5084980;28;20214;-77
2021/05/07 01:43:06;;;;;;;9.30;8.80;;;8.70;99.90;;;;;;5084775;28;20201;-77
2021/05/07 01:45:35;;;;;;;9.60;9.10;;;8.70;99.90;;;;;;5085160;28;20334;-77
2021/05/07 01:48:02;;;;;;;9.87;9.27;;;8.70;99.90;;;;;;5079968;28;20201;-77
2021/05/07 01:50:32;;;;;;;9.40;8.90;;;8.60;99.90;;;;;;5087160;28;20220;-77
2021/05/07 01:52:59;;;;;;;9.70;9.10;;;8.60;99.90;;;;;;5082378;28;20283;-77
2021/05/07 01:55:30;;;;;;;9.60;9.10;;;8.60;99.90;;;;;;5084669;28;20199;-77
2021/05/07 01:57:57;;;;;;;9.23;8.73;;;8.60;99.90;;;;;;5077103;28;20666;-77
2021/05/07 02:00:25;;;;;;;10.00;9.40;;;8.50;99.90;;;;;;5076005;28;20439;-77
2021/05/07 02:02:53;;;;;;;9.30;8.80;;;8.50;99.90;;;;;;5079716;28;20352;-77
2021/05/07 02:05:27;;;;;;;9.00;8.50;;;8.50;99.90;;;;;;5088616;28;20200;-77
2021/05/07 02:07:54;;;;;;;9.50;8.90;;;8.50;99.90;;;;;;5079821;28;20632;-78
2021/05/07 02:10:23;;;;;;;9.40;8.90;;;8.50;99.90;;;;;;5082521;28;20224;-77
2021/05/07 02:12:51;;;;;;;9.30;8.80;;;8.50;99.90;;;;;;5073857;28;20189;-78
2021/05/07 02:15:19;;;;;;;10.17;9.57;;;8.50;99.90;;;;;;5080706;28;20188;-77
2021/05/07 02:17:50;;;;;;;11.10;10.40;;;8.50;99.90;;;;;;5084827;28;20247;-78
2021/05/07 02:20:19;;;;;;;9.27;8.77;;;8.50;99.90;;;;;;5077419;28;20218;-77
2021/05/07 02:22:47;;;;;;;11.00;10.30;;;8.50;99.90;;;;;;5083079;28;20607;-77
2021/05/07 02:25:16;;;;;;;11.37;10.77;;;8.50;99.90;;;;;;5081997;28;20196;-77
2021/05/07 02:27:44;;;;;;;9.80;9.30;;;8.50;99.90;;;;;;5079243;28;20197;-78
2021/05/07 02:30:19;;;;;;;9.90;9.40;;;8.50;99.90;;;;;;5083416;28;20216;-77
2021/05/07 02:32:45;;;;;;;10.00;9.50;;;8.50;99.90;;;;;;5083918;28;20192;-77
2021/05/07 02:35:12;;;;;;;9.70;9.10;;;8.50;99.90;;;;;;5089815;28;20246;-76
2021/05/07 02:37:39;;;;;;;10.20;9.60;;;8.50;99.90;;;;;;5085290;28;20192;-76
2021/05/07 02:40:07;;;;;;;9.90;9.30;;;8.50;99.90;;;;;;5080691;28;20216;-77
2021/05/07 02:42:34;;;;;;;9.40;8.90;;;8.50;99.90;;;;;;5085414;28;20200;-76
2021/05/07 02:45:02;;;;;;;10.77;10.17;;;8.50;99.90;;;;;;5093244;28;20287;-77
2021/05/07 02:47:30;;;;;;;10.93;10.33;;;8.50;99.90;;;;;;5085269;28;20228;-76
2021/05/07 02:49:57;;;;;;;10.03;9.50;;;8.50;99.90;;;;;;5083699;28;20213;-76
2021/05/07 02:52:23;;;;;;;9.50;9.00;;;8.50;99.90;;;;;;5080839;28;20198;-75
2021/05/07 02:54:50;;;;;;;11.13;10.53;;;8.50;99.90;;;;;;5089912;28;20192;-76
2021/05/07 02:57:16;;;;;;;9.93;9.33;;;8.50;99.90;;;;;;5078822;28;20207;-76
2021/05/07 02:59:43;;;;;;;9.83;9.33;;;8.50;99.90;;;;;;5077866;28;20252;-77
2021/05/07 03:02:10;;;;;;;9.53;9.03;;;8.50;99.90;;;;;;5080764;28;20215;-77
2021/05/07 03:04:37;;;;;;;10.07;9.53;;;8.50;99.90;;;;;;5076831;28;20220;-76
2021/05/07 03:07:03;;;;;;;10.90;10.30;;;8.50;99.90;;;;;;5083002;28;20216;-76
2021/05/07 03:09:30;;;;;;;10.53;9.83;;;8.50;99.90;;;;;;5080863;28;20219;-76
2021/05/07 03:11:56;;;;;;;10.67;10.07;;;8.40;99.90;;;;;;5081731;28;20208;-75
2021/05/07 03:14:24;;;;;;;12.10;11.30;;;8.40;99.90;;;;;;5083085;28;20668;-76
2021/05/07 03:16:50;;;;;;;11.70;10.90;;;8.40;99.90;;;;;;5079358;28;20202;-77
2021/05/07 03:19:16;;;;;;;11.17;10.40;;;8.40;99.90;;;;;;5080594;28;20216;-79
2021/05/07 03:21:44;;;;;;;10.63;10.03;;;8.40;99.90;;;;;;5084024;28;20225;-81
2021/05/07 03:24:12;;;;;;;11.00;10.20;;;8.40;99.90;;;;;;5090730;28;20199;-79
2021/05/07 03:26:39;;;;;;;11.37;10.47;;;8.40;99.90;;;;;;5080235;28;20189;-80
2021/05/07 03:29:06;;;;;;;11.00;10.30;;;8.40;99.90;;;;;;5083207;28;20609;-80
2021/05/07 03:31:34;;;;;;;10.80;10.20;;;8.40;99.90;;;;;;5072990;28;20262;-78
2021/05/07 03:34:01;;;;;;;10.33;9.83;;;8.40;99.90;;;;;;5083290;28;20259;-79
2021/05/07 03:36:27;;;;;;;11.10;10.40;;;8.40;99.90;;;;;;5080720;28;20192;-80
2021/05/07 03:38:55;;;;;;;10.80;10.10;;;8.40;99.90;;;;;;5079781;28;20221;-82
2021/05/07 03:41:21;;;;;;;10.70;10.10;;;8.40;99.90;;;;;;5080834;28;20217;-82
2021/05/07 03:43:47;;;;;;;12.03;11.37;;;8.40;99.90;;;;;;5087063;28;20196;-80
2021/05/07 03:46:14;;;;;;;10.50;9.90;;;8.40;99.90;;;;;;5081301;28;20208;-83
2021/05/07 03:48:40;;;;;;;10.47;9.87;;;8.30;99.90;;;;;;5078607;28;20193;-82
2021/05/07 03:51:09;;;;;;;10.50;9.90;;;8.40;99.90;;;;;;5081528;28;20562;-82
2021/05/07 03:53:36;;;;;;;10.20;9.60;;;8.40;99.90;;;;;;5080264;28;20206;-83
2021/05/07 03:56:03;;;;;;;10.23;9.63;;;8.40;99.90;;;;;;5081806;28;20600;-82
2021/05/07 03:58:30;;;;;;;10.43;9.83;;;8.30;99.90;;;;;;5078459;28;20649;-82
2021/05/07 04:00:56;;;;;;;10.43;9.83;;;8.30;99.90;;;;;;5081525;28;20249;-81
2021/05/07 04:03:22;;;;;;;10.20;9.60;;;8.30;99.90;;;;;;5079896;28;20196;-82
2021/05/07 04:05:51;;;;;;;10.50;9.70;;;8.30;99.90;;;;;;5083182;28;20212;-82
2021/05/07 04:08:21;;;;;;;10.50;9.80;;;8.30;99.90;;;;;;5079807;28;20647;-82
2021/05/07 04:10:52;;;;;;;10.50;9.90;;;8.30;99.90;;;;;;5075682;28;20450;-81
2021/05/07 04:13:35;;;;;;;12.27;11.57;;;8.40;99.90;;;;;;5097071;28;20715;-82
2021/05/07 04:16:02;;;;;;;11.40;10.80;;;8.40;99.90;;;;;;5083173;28;20197;-82
2021/05/07 04:18:28;;;;;;;10.60;10.00;;;8.30;99.90;;;;;;5083182;28;20204;-82
2021/05/07 04:20:55;;;;;;;11.00;10.40;;;8.30;99.90;;;;;;5077523;28;20220;-84
2021/05/07 04:23:21;;;;;;;11.00;10.40;;;8.30;99.90;;;;;;5081254;28;20204;-82
2021/05/07 04:25:47;;;;;;;11.30;10.70;;;8.30;99.90;;;;;;5080042;28;20194;-82
2021/05/07 04:28:14;;;;;;;10.97;10.37;;;8.30;99.90;;;;;;5082591;28;20554;-82
2021/05/07 04:30:41;;;;;;;11.20;10.57;;;8.30;99.90;;;;;;5072105;28;20246;-82
2021/05/07 04:33:07;;;;;;;11.20;10.50;;;8.30;99.90;;;;;;5074302;28;20197;-82
2021/05/07 04:35:34;;;;;;;11.50;10.90;;;8.20;99.90;;;;;;5084474;28;20191;-83
2021/05/07 04:38:01;;;;;;;11.80;11.10;;;8.20;99.90;;;;;;5080240;28;20196;-82
2021/05/07 04:40:27;;;;;;;12.00;11.20;;;8.20;99.90;;;;;;5078340;28;20217;-82
2021/05/07 04:42:53;;;;;;;12.50;11.47;;;8.10;99.90;;;;;;5080892;28;20193;-82
2021/05/07 04:45:20;;;;;;;11.77;11.10;;;8.10;99.90;;;;;;5082141;28;20195;-82
2021/05/07 04:47:47;;;;;;;12.33;11.60;;;8.00;99.90;;;;;;5083368;28;20559;-81
2021/05/07 04:50:14;;;;;;;11.77;11.17;;;7.90;99.90;;;;;;5077488;28;20216;-81
2021/05/07 04:52:41;;;;;;;11.93;11.23;;;7.90;99.90;;;;;;5076245;28;20202;-81
2021/05/07 04:55:08;;;;;;;11.80;11.20;;;7.80;99.90;;;;;;5079970;28;20200;-82
2021/05/07 04:57:35;;;;;;;11.80;11.20;;;7.80;99.90;;;;;;5080917;28;20665;-82
2021/05/07 05:00:01;;;;;;;11.60;11.00;;;7.70;99.90;;;;;;5081044;28;20328;-81
2021/05/07 05:02:29;;;;;;;11.70;11.10;;;7.70;99.90;;;;;;5082302;28;20227;-82
2021/05/07 05:04:57;;;;;;;11.40;10.80;;;7.60;99.90;;;;;;5079278;28;20245;-82
2021/05/07 05:07:23;;;;;;;10.83;10.23;;;7.50;99.90;;;;;;5083972;28;20189;-82
2021/05/07 05:09:50;;;;;;;11.17;10.57;;;7.50;99.90;;;;;;5085863;28;20219;-82
2021/05/07 05:12:16;;;;;;;10.90;10.30;;;7.40;99.90;;;;;;5082701;28;20199;-82
2021/05/07 05:14:42;;;;;;;11.40;10.80;;;7.40;99.90;;;;;;5084530;28;20196;-81
2021/05/07 05:17:09;;;;;;;11.20;10.60;;;7.30;99.90;;;;;;5079457;28;20253;-81
2021/05/07 05:19:35;;;;;;;10.63;10.10;;;7.30;99.90;;;;;;5082909;28;20230;-82
2021/05/07 05:22:02;;;;;;;11.30;10.70;;;7.20;99.90;;;;;;5076148;28;20216;-81
2021/05/07 05:24:28;;;;;;;11.10;10.50;;;7.20;99.90;;;;;;5085311;28;20208;-81
2021/05/07 05:26:56;;;;;;;11.10;10.50;;;7.20;99.90;;;;;;5077521;28;20222;-81
2021/05/07 05:29:22;;;;;;;11.00;10.40;;;7.20;99.90;;;;;;5080605;28;20696;-81
2021/05/07 05:31:49;;;;;;;11.20;10.60;;;7.10;99.90;;;;;;5071511;28;20215;-82
2021/05/07 05:34:15;;;;;;;11.63;11.03;;;7.00;99.90;;;;;;5082561;28;20194;-81
2021/05/07 05:36:46;;;;;;;11.00;10.40;;;6.90;99.90;;;;;;5082269;28;20213;-82
2021/05/07 05:39:14;;;;;;;11.50;10.90;;;6.90;99.90;;;;;;5077930;28;20699;-80
2021/05/07 05:41:41;;;;;;;11.27;10.67;;;6.90;99.90;;;;;;5077120;28;20596;-81
2021/05/07 05:44:08;;;;;;;12.13;11.43;;;6.90;99.90;;;;;;5080074;28;20198;-81
2021/05/07 05:46:37;;;;;;;11.53;10.93;;;6.90;99.90;;;;;;5079096;28;20195;-81
2021/05/07 05:49:05;;;;;;;11.50;10.90;;;7.00;99.90;;;;;;5079565;28;20223;-81
2021/05/07 05:51:31;;;;;;;10.50;10.00;;;7.00;99.90;;;;;;5081388;28;20187;-81
2021/05/07 05:53:58;;;;;;;10.97;10.27;;;7.00;99.90;;;;;;5081683;28;20220;-83
2021/05/07 05:56:25;;;;;;;11.10;10.50;;;7.00;99.90;;;;;;5081257;28;20203;-82
2021/05/07 05:58:51;;;;;;;11.03;10.47;;;6.90;99.90;;;;;;5081356;28;20253;-81
2021/05/07 06:01:18;;;;;;;11.60;10.90;;;6.90;99.90;;;;;;5084279;28;20216;-81
2021/05/07 06:03:44;;;;;;;11.10;10.50;;;7.00;99.90;;;;;;5089505;28;20198;-81
2021/05/07 06:06:10;;;;;;;11.43;10.83;;;7.00;99.90;;;;;;5083016;28;20206;-81
2021/05/07 06:08:36;;;;;;;11.00;10.40;;;7.00;99.90;;;;;;5083111;28;20206;-81
2021/05/07 06:11:03;;;;;;;11.00;10.40;;;7.00;99.90;;;;;;5085565;28;20199;-83
2021/05/07 06:13:30;;;;;;;11.30;10.70;;;7.00;99.90;;;;;;5082783;28;20200;-82
2021/05/07 06:15:57;;;;;;;10.80;10.20;;;7.10;99.90;;;;;;5080402;28;20207;-81
2021/05/07 06:18:23;;;;;;;10.80;10.20;;;7.20;99.90;;;;;;5083052;28;20663;-81
2021/05/07 06:20:49;;;;;;;10.90;10.30;;;7.20;99.90;;;;;;5083381;28;20322;-81
2021/05/07 06:23:17;;;;;;;10.80;10.20;;;7.30;99.90;;;;;;5086792;28;20194;-81
2021/05/07 06:25:43;;;;;;;10.97;10.37;;;7.30;99.90;;;;;;5080747;28;20236;-81
2021/05/07 06:28:10;;;;;;;10.97;10.37;;;7.30;99.90;;;;;;5087074;28;20187;-81
2021/05/07 06:30:37;;;;;;;11.40;10.80;;;7.40;99.90;;;;;;5086224;28;20228;-81
2021/05/07 06:33:04;;;;;;;10.60;10.10;;;7.40;99.90;;;;;;5083547;28;20226;-81
2021/05/07 06:35:30;;;;;;;10.80;10.30;;;7.40;99.90;;;;;;5081727;28;20200;-81
2021/05/07 06:37:59;;;;;;;11.30;10.70;;;7.40;99.90;;;;;;5083638;28;20199;-80
2021/05/07 06:40:25;;;;;;;10.67;10.13;;;7.40;99.90;;;;;;5087775;28;20226;-81
2021/05/07 06:42:52;;;;;;;10.80;10.20;;;7.30;99.90;;;;;;5082147;28;20200;-81
2021/05/07 06:45:18;;;;;;;11.43;10.67;;;7.30;99.90;;;;;;5086301;28;20194;-82
2021/05/07 06:47:46;;;;;;;11.10;10.50;;;7.40;99.90;;;;;;5083989;28;20252;-82
2021/05/07 06:50:15;;;;;;;10.80;10.20;;;7.50;99.90;;;;;;5084073;28;20211;-81
2021/05/07 06:52:41;;;;;;;10.40;9.80;;;7.50;99.90;;;;;;5083562;28;20215;-81
2021/05/07 06:55:11;;;;;;;10.00;9.50;;;7.50;99.90;;;;;;5078015;28;20203;-81
2021/05/07 06:57:37;;;;;;;9.97;9.47;;;7.40;99.90;;;;;;5079801;28;20198;-82
2021/05/07 07:00:06;;;;;;;10.20;9.70;;;7.50;99.90;;;;;;5082508;28;20246;-81
2021/05/07 07:02:33;;;;;;;10.20;9.70;;;7.60;99.90;;;;;;5080825;28;20742;-81
2021/05/07 07:05:00;;;;;;;9.90;9.40;;;7.60;99.90;;;;;;5081447;28;20292;-81
2021/05/07 07:07:27;;;;;;;10.27;9.60;;;7.60;99.90;;;;;;5082442;28;20207;-81
2021/05/07 07:09:54;;;;;;;9.73;9.23;;;7.60;99.90;;;;;;5083624;28;20242;-82
2021/05/07 07:12:20;;;;;;;9.83;9.33;;;7.60;99.90;;;;;;5078479;28;20198;-81
2021/05/07 07:14:47;;;;;;;9.80;9.30;;;7.60;99.90;;;;;;5081522;28;20227;-81
2021/05/07 07:17:13;;;;;;;9.83;9.33;;;7.70;99.90;;;;;;5082008;28;20249;-81
2021/05/07 07:19:39;;;;;;;10.10;9.60;;;7.80;99.90;;;;;;5081901;28;20356;-81
2021/05/07 07:22:07;;;;;;;9.50;9.00;;;7.90;99.90;;;;;;5075485;28;20273;-81
2021/05/07 07:24:34;;;;;;;11.03;10.40;;;8.00;99.90;;;;;;5082492;28;20210;-82
2021/05/07 07:27:00;;;;;;;10.60;9.90;;;8.20;99.90;;;;;;5093534;28;20196;-82
2021/05/07 07:29:27;;;;;;;10.50;9.90;;;8.20;99.90;;;;;;5079169;28;20233;-81
2021/05/07 07:31:53;;;;;;;10.70;10.10;;;8.30;99.90;;;;;;5081634;28;20196;-82
2021/05/07 07:34:20;;;;;;;10.53;9.93;;;8.20;99.90;;;;;;5080330;28;20672;-81
2021/05/07 07:36:47;;;;;;;11.20;10.60;;;8.10;99.90;;;;;;5081935;28;20697;-82
2021/05/07 07:39:15;;;;;;;11.53;10.93;;;8.00;99.90;;;;;;5082123;28;20213;-81
2021/05/07 07:41:41;;;;;;;5.10;4.90;;;7.90;99.90;;;;;;5085299;28;20200;-81
2021/05/07 07:44:08;;;;;;;10.30;9.80;;;7.90;99.90;;;;;;5081568;28;20543;-82
2021/05/07 07:46:34;;;;;;;10.60;10.10;;;7.90;99.90;;;;;;5081475;28;20205;-81
2021/05/07 07:49:01;;;;;;;10.80;10.20;;;7.90;99.90;;;;;;5082686;28;20219;-82
2021/05/07 07:51:31;;;;;;;10.47;9.97;;;7.90;99.90;;;;;;5080686;28;20196;-82
2021/05/07 07:53:57;;;;;;;10.67;10.17;;;7.90;99.90;;;;;;5085837;28;20680;-82
2021/05/07 07:56:25;;;;;;;11.00;10.40;;;7.90;99.90;;;;;;5085362;28;20189;-82
2021/05/07 07:58:51;;;;;;;10.50;9.90;;;7.90;99.90;;;;;;5081880;28;20290;-84
2021/05/07 08:01:18;;;;;;;10.83;10.23;;;7.80;99.90;;;;;;5080767;28;20209;-82
2021/05/07 08:03:45;;;;;;;10.43;9.93;;;7.80;99.90;;;;;;5080149;28;20196;-81
2021/05/07 08:06:11;;;;;;;10.50;9.90;;;7.90;99.90;;;;;;5082919;28;20196;-82
2021/05/07 08:08:37;;;;;;;10.80;10.10;;;7.90;99.90;;;;;;5080594;28;20194;-81
2021/05/07 08:11:04;;;;;;;10.90;10.30;;;7.90;99.90;;;;;;5083106;28;20193;-81
2021/05/07 08:13:31;;;;;;;10.50;9.90;;;7.80;99.90;;;;;;5099174;28;20801;-81
2021/05/07 08:15:57;;;;;;;10.50;9.90;;;7.90;99.90;;;;;;5076234;28;20201;-81
2021/05/07 08:18:24;;;;;;;10.83;10.23;;;7.80;99.90;;;;;;5081181;28;20208;-81
2021/05/07 08:20:50;;;;;;;11.17;10.57;;;7.90;99.90;;;;;;5080401;28;20228;-81
2021/05/07 08:23:16;;;;;;;11.33;10.73;;;8.00;99.90;;;;;;5086943;28;20202;-81
2021/05/07 08:25:43;;;;;;;11.60;10.90;;;8.00;99.90;;;;;;5079250;28;20627;-82
2021/05/07 08:28:09;;;;;;;11.27;10.67;;;8.00;99.90;;;;;;5083147;28;20222;-81
2021/05/07 08:30:36;;;;;;;11.50;10.90;;;7.90;99.90;;;;;;5083490;28;20605;-84
2021/05/07 08:33:03;;;;;;;11.13;10.53;;;7.90;99.90;;;;;;5082141;28;20201;-81
2021/05/07 08:35:32;;;;;;;11.13;10.53;;;7.90;99.90;;;;;;5083082;28;20207;-81
2021/05/07 08:37:59;;;;;;;11.10;10.50;;;7.80;99.90;;;;;;5080265;28;20193;-81
2021/05/07 08:40:25;;;;;;;11.00;10.40;;;7.90;99.90;;;;;;5082370;28;20234;-81
2021/05/07 08:42:52;;;;;;;10.90;10.30;;;7.90;99.90;;;;;;5080193;28;20263;-82
2021/05/07 08:45:18;;;;;;;10.70;10.10;;;7.90;99.90;;;;;;5083012;28;20197;-82
2021/05/07 08:47:46;;;;;;;11.10;10.50;;;7.90;99.90;;;;;;5082873;28;20199;-81
2021/05/07 08:50:13;;;;;;;10.50;9.90;;;7.90;99.90;;;;;;5077996;28;20216;-81
2021/05/07 08:52:39;;;;;;;11.27;10.67;;;7.90;99.90;;;;;;5076571;28;20242;-82
2021/05/07 08:55:06;;;;;;;10.57;10.00;;;8.00;99.90;;;;;;5083573;28;20194;-82
2021/05/07 08:57:33;;;;;;;10.87;10.27;;;8.00;99.90;;;;;;5079537;28;20262;-81
2021/05/07 08:59:59;;;;;;;10.93;10.33;;;8.00;99.90;;;;;;5081097;28;20231;-82
2021/05/07 09:02:30;;;;;;;10.70;10.10;;;8.00;99.90;;;;;;5080176;28;20294;-81
2021/05/07 09:04:58;;;;;;;10.70;10.10;;;7.90;99.90;;;;;;5083081;28;20321;-81
2021/05/07 09:07:25;;;;;;;11.60;10.90;;;7.90;99.90;;;;;;5089823;28;20199;-82
2021/05/07 09:09:57;;;;;;;12.40;11.70;;;7.90;99.90;;;;;;5097405;28;20231;-81
2021/05/07 09:12:30;;;;;;;10.70;9.90;;;7.80;99.90;;;;;;5080804;28;20731;-81
2021/05/07 09:14:57;;;;;;;10.90;10.30;;;7.80;99.90;;;;;;5079745;28;20244;-81
2021/05/07 09:17:25;;;;;;;11.30;10.60;;;7.80;99.90;;;;;;5079108;28;20263;-82
2021/05/07 09:20:05;;;;;;;11.10;10.50;;;7.80;99.90;;;;;;5081535;28;20223;-83
2021/05/07 09:22:32;;;;;;;10.93;10.33;;;8.00;99.90;;;;;;5079447;28;20290;-82
2021/05/07 09:25:14;;;;;;;11.23;10.53;;;8.20;99.90;;;;;;5078696;28;20258;-82
2021/05/07 09:27:40;;;;;;;3.40;3.20;;;8.60;99.90;;;;;;5082033;28;20209;-82
2021/05/07 09:30:22;;;;;;;11.87;11.17;;;9.30;99.90;;;;;;5081764;28;20221;-82
2021/05/07 09:32:49;;;;;;;11.53;10.93;;;9.70;99.90;;;;;;5081702;28;20213;-82
2021/05/07 09:35:17;;;;;;;11.10;10.40;;;10.30;99.90;;;;;;5074220;28;20199;-82
2021/05/07 09:37:44;;;;;;;11.07;10.37;;;10.90;99.90;;;;;;5073974;28;20702;-82
2021/05/07 09:40:21;;;;;;;11.20;10.50;;;11.60;99.90;;;;;;5086216;28;20263;-82
2021/05/07 09:42:48;;;;;;;11.40;10.70;;;11.60;99.90;;;;;;5085204;28;20693;-82
2021/05/07 09:45:25;;;;;;;11.77;11.00;;;11.70;99.90;;;;;;5087536;28;20186;-82
2021/05/07 09:47:52;;;;;;;11.30;10.60;;;12.00;99.90;;;;;;5085016;28;20193;-82
2021/05/07 09:50:29;;;;;;;11.27;10.60;;;12.50;99.90;;;;;;5082474;28;20222;-82
2021/05/07 09:53:06;;;;;;;11.13;10.47;;;12.50;99.90;;;;;;5084917;28;20200;-82
2021/05/07 09:55:33;;;;;;;11.30;10.60;;;12.30;99.90;;;;;;5084782;28;20241;-82
2021/05/07 09:57:59;;;;;;;11.50;10.80;;;12.00;99.90;;;;;;5084828;28;20266;-82
2021/05/07 10:00:26;;;;;;;12.20;11.30;;;11.70;99.90;;;;;;5082404;28;20234;-82
2021/05/07 10:02:53;;;;;;;12.07;11.33;;;11.50;99.90;;;;;;5089698;28;20217;-82
2021/05/07 10:05:20;;;;;;;11.80;11.10;;;11.40;99.90;;;;;;5083350;28;20192;-83
2021/05/07 10:07:46;;;;;;;11.97;11.27;;;11.10;99.90;;;;;;5084011;28;20258;-82
2021/05/07 10:10:13;;;;;;;12.20;11.43;;;10.90;99.90;;;;;;5087002;28;20218;-82
2021/05/07 10:12:44;;;;;;;12.03;11.23;;;10.70;99.90;;;;;;5087979;28;20569;-82
2021/05/07 10:15:11;;;;;;;11.80;11.00;;;11.10;99.90;;;;;;5079634;28;20202;-82
2021/05/07 10:17:49;;;;;;;12.10;11.30;;;11.70;99.90;;;;;;5086852;28;20201;-84
2021/05/07 10:20:30;;;;;;;11.17;10.47;;;12.10;99.90;;;;;;5074620;28;20217;-81
2021/05/07 10:22:56;;;;;;;11.23;10.40;;;12.20;99.90;;;;;;5076831;28;20470;-82
2021/05/07 10:25:24;;;;;;;11.40;10.60;;;12.20;99.90;;;;;;5085349;28;20201;-83
2021/05/07 10:27:53;;;;;;;12.00;11.10;;;12.00;99.90;;;;;;5085757;28;20221;-82
2021/05/07 10:30:24;;;;;;;11.17;10.47;;;11.70;99.90;;;;;;5075363;28;20253;-83
2021/05/07 10:33:00;;;;;;;11.03;10.33;;;11.80;99.90;;;;;;5089600;28;20200;-82
2021/05/07 10:35:32;;;;;;;11.10;10.30;;;12.20;99.90;;;;;;5082999;28;20226;-82
2021/05/07 10:38:07;;;;;;;10.70;10.00;;;12.30;99.90;;;;;;5076830;28;20205;-82
2021/05/07 10:40:34;;;;;;;11.47;10.57;;;12.10;99.90;;;;;;5090919;28;20221;-84
2021/05/07 10:43:01;;;;;;;10.90;10.20;;;11.80;99.90;;;;;;5100112;28;20717;-82
2021/05/07 10:45:48;;;;;;;11.27;10.47;;;11.60;99.90;;;;;;5086591;28;20195;-82
2021/05/07 10:48:21;;;;;;;10.93;10.10;;;11.50;99.90;;;;;;5088057;28;20196;-82
2021/05/07 10:50:50;;;;;;;10.90;10.10;;;11.80;99.90;;;;;;5088070;28;20225;-82
2021/05/07 10:53:30;;;;;;;10.93;10.13;;;12.30;99.90;;;;;;5093515;28;20184;-82
2021/05/07 10:56:00;;;;;;;10.67;9.97;;;12.50;99.90;;;;;;5089842;28;20204;-82
2021/05/07 10:58:34;;;;;;;10.57;9.87;;;12.80;99.90;;;;;;5081576;28;20204;-82
2021/05/07 11:01:14;;;;;;;10.73;10.03;;;12.90;99.90;;;;;;5085392;28;20200;-81
2021/05/07 11:03:40;;;;;;;10.27;9.37;;;12.90;99.90;;;;;;5084951;28;20207;-82
2021/05/07 11:06:07;;;;;;;10.10;9.40;;;12.70;99.90;;;;;;5088567;28;20223;-82
2021/05/07 11:08:34;;;;;;;9.90;9.23;;;13.00;99.90;;;;;;5089607;28;20563;-82
2021/05/07 11:11:00;;;;;;;10.13;9.43;;;13.30;99.90;;;;;;5092454;28;20198;-82
2021/05/07 11:13:28;;;;;;;9.70;9.10;;;13.50;99.90;;;;;;5082916;28;20202;-82
2021/05/07 11:15:56;;;;;;;9.70;9.00;;;13.60;99.90;;;;;;5089776;28;20220;-83
2021/05/07 11:18:28;;;;;;;9.87;9.20;;;13.50;99.90;;;;;;5081651;28;20198;-83
2021/05/07 11:20:55;;;;;;;9.90;9.20;;;13.30;99.90;;;;;;5084202;28;20218;-83
2021/05/07 11:23:29;;;;;;;10.83;9.97;;;13.00;99.90;;;;;;5089285;28;20194;-83
2021/05/07 11:26:04;;;;;;;9.97;9.27;;;12.50;99.90;;;;;;5083511;28;20205;-82
2021/05/07 11:28:40;;;;;;;10.63;9.77;;;12.40;99.90;;;;;;5084787;28;20655;-82
2021/05/07 11:31:06;;;;;;;10.10;9.40;;;12.50;99.90;;;;;;5072682;28;20202;-82
2021/05/07 11:33:36;;;;;;;9.90;9.30;;;12.70;99.90;;;;;;5081424;28;20208;-83
2021/05/07 11:36:06;;;;;;;9.97;9.37;;;12.90;99.90;;;;;;5082535;28;20189;-79
2021/05/07 11:38:34;;;;;;;9.33;8.73;;;13.00;99.90;;;;;;5080268;28;20264;-80
2021/05/07 11:41:00;;;;;;;10.90;10.00;;;13.40;99.90;;;;;;5088714;28;20192;-78
2021/05/07 11:43:28;;;;;;;9.97;9.20;;;13.60;99.90;;;;;;5072152;28;20220;-80
2021/05/07 11:46:05;;;;;;;10.50;9.83;;;13.60;99.90;;;;;;5089328;28;20197;-79
2021/05/07 11:48:32;;;;;;;10.60;9.90;;;13.80;99.90;;;;;;5072876;28;20679;-80
2021/05/07 11:51:03;;;;;;;10.77;10.17;;;14.00;99.90;;;;;;5077628;28;20222;-80
2021/05/07 11:53:29;;;;;;;10.33;9.50;;;14.10;99.90;;;;;;5073971;28;20195;-80
2021/05/07 11:55:56;;;;;;;11.00;10.20;;;14.30;99.90;;;;;;5074344;28;20202;-80
2021/05/07 11:58:30;;;;;;;9.93;9.33;;;14.10;99.90;;;;;;5073842;28;20198;-80
2021/05/07 12:00:57;;;;;;;9.80;9.10;;;14.20;99.90;;;;;;5072799;28;20217;-80
2021/05/07 12:03:25;;;;;;;9.47;8.87;;;14.10;99.90;;;;;;5079490;28;20486;-79
2021/05/07 12:05:53;;;;;;;9.53;8.83;;;14.10;99.90;;;;;;5077746;28;20214;-80
2021/05/07 12:08:27;;;;;;;9.23;8.63;;;14.00;99.90;;;;;;5075838;28;20197;-79
2021/05/07 12:10:53;;;;;;;9.33;8.57;;;14.00;99.90;;;;;;5074261;28;20280;-79
2021/05/07 12:13:24;;;;;;;9.00;8.40;;;14.20;99.90;;;;;;5077745;28;20202;-79
2021/05/07 12:15:52;;;;;;;9.00;8.37;;;14.50;99.90;;;;;;5072400;28;20658;-80
2021/05/07 12:18:21;;;;;;;8.90;8.40;;;14.60;99.90;;;;;;5083787;28;20288;-79
2021/05/07 12:20:50;;;;;;;8.83;8.23;;;14.60;99.90;;;;;;5072761;28;20221;-79
2021/05/07 12:23:16;;;;;;;9.20;8.60;;;14.60;99.90;;;;;;5078087;28;20751;-79
2021/05/07 12:25:44;;;;;;;9.43;8.60;;;14.60;99.90;;;;;;5079293;28;20191;-79
2021/05/07 12:28:15;;;;;;;9.10;8.50;;;14.60;99.90;;;;;;5072484;28;20286;-79
2021/05/07 12:30:44;;;;;;;8.80;8.10;;;14.60;99.90;;;;;;5080475;28;20212;-76
2021/05/07 12:33:16;;;;;;;8.70;8.10;;;14.70;99.90;;;;;;5080978;28;20183;-78
2021/05/07 12:35:43;;;;;;;9.13;8.30;;;14.70;99.90;;;;;;5090833;28;20202;-78
2021/05/07 12:38:26;;;;;;;9.00;8.10;;;14.70;99.90;;;;;;5086030;28;20669;-81
2021/05/07 12:40:55;;;;;;;8.60;7.90;;;14.80;99.90;;;;;;5085503;28;20206;-79
2021/05/07 12:43:21;;;;;;;8.90;8.20;;;14.80;99.90;;;;;;5085111;28;20190;-80
2021/05/07 12:45:50;;;;;;;8.90;8.20;;;15.00;99.90;;;;;;5080996;28;20201;-79
2021/05/07 12:48:17;;;;;;;8.80;8.00;;;14.90;99.90;;;;;;5081118;28;20198;-80